sensor_id;sensor_type;location;lat;lon;timestamp;pressure;altitude;pressure_sealevel;temperature;humidity
76766;BME280;65707;52.362;6.588;2022-12-07T00:00:55;101676.00;;;5.50;83.43
76766;BME280;65707;52.362;6.588;2022-12-07T00:03:22;101677.28;;;5.44;83.18
76766;BME280;65707;52.362;6.588;2022-12-07T00:05:48;101686.03;;;5.46;82.64
76766;BME280;65707;52.362;6.588;2022-12-07T00:08:15;101687.53;;;5.38;82.85
76766;BME280;65707;52.362;6.588;2022-12-07T00:10:42;101678.47;;;5.29;83.20
76766;BME280;65707;52.362;6.588;2022-12-07T00:13:09;101692.06;;;5.25;83.70
76766;BME280;65707;52.362;6.588;2022-12-07T00:15:40;101682.19;;;5.27;83.69
76766;BME280;65707;52.362;6.588;2022-12-07T00:18:07;101678.06;;;5.23;83.43
76766;BME280;65707;52.362;6.588;2022-12-07T00:20:33;101675.13;;;5.15;83.41
76766;BME280;65707;52.362;6.588;2022-12-07T00:23:00;101682.34;;;5.13;83.44
76766;BME280;65707;52.362;6.588;2022-12-07T00:25:27;101681.25;;;5.04;83.79
76766;BME280;65707;52.362;6.588;2022-12-07T00:27:54;101677.09;;;5.00;83.55
76766;BME280;65707;52.362;6.588;2022-12-07T00:30:22;101673.78;;;4.97;84.22
76766;BME280;65707;52.362;6.588;2022-12-07T00:32:50;101673.09;;;4.95;84.07
76766;BME280;65707;52.362;6.588;2022-12-07T00:35:17;101673.31;;;4.92;84.11
76766;BME280;65707;52.362;6.588;2022-12-07T00:37:44;101668.63;;;4.82;83.78
76766;BME280;65707;52.362;6.588;2022-12-07T00:40:11;101662.88;;;4.89;84.03
76766;BME280;65707;52.362;6.588;2022-12-07T00:42:39;101660.56;;;4.84;84.09
76766;BME280;65707;52.362;6.588;2022-12-07T00:45:06;101662.16;;;4.87;84.39
76766;BME280;65707;52.362;6.588;2022-12-07T00:47:34;101658.13;;;4.81;84.51
76766;BME280;65707;52.362;6.588;2022-12-07T00:50:06;101658.22;;;4.79;84.01
76766;BME280;65707;52.362;6.588;2022-12-07T00:52:33;101671.41;;;4.81;84.67
76766;BME280;65707;52.362;6.588;2022-12-07T00:55:00;101670.47;;;4.82;84.45
76766;BME280;65707;52.362;6.588;2022-12-07T00:57:27;101663.31;;;4.82;84.64
76766;BME280;65707;52.362;6.588;2022-12-07T00:59:56;101656.53;;;4.78;84.57
76766;BME280;65707;52.362;6.588;2022-12-07T01:02:25;101669.50;;;4.83;84.60
76766;BME280;65707;52.362;6.588;2022-12-07T01:04:52;101663.53;;;4.79;84.87
76766;BME280;65707;52.362;6.588;2022-12-07T01:07:20;101666.44;;;4.76;85.04
76766;BME280;65707;52.362;6.588;2022-12-07T01:09:47;101658.22;;;4.79;85.41
76766;BME280;65707;52.362;6.588;2022-12-07T01:12:14;101654.22;;;4.74;85.11
76766;BME280;65707;52.362;6.588;2022-12-07T01:14:41;101656.88;;;4.74;85.39
76766;BME280;65707;52.362;6.588;2022-12-07T01:17:09;101649.63;;;4.76;84.99
76766;BME280;65707;52.362;6.588;2022-12-07T01:19:36;101652.09;;;4.79;84.81
76766;BME280;65707;52.362;6.588;2022-12-07T01:22:03;101654.00;;;4.77;84.98
76766;BME280;65707;52.362;6.588;2022-12-07T01:24:31;101656.13;;;4.72;84.92
76766;BME280;65707;52.362;6.588;2022-12-07T01:26:58;101649.25;;;4.69;85.10
76766;BME280;65707;52.362;6.588;2022-12-07T01:29:25;101653.59;;;4.70;84.85
76766;BME280;65707;52.362;6.588;2022-12-07T01:31:51;101647.34;;;4.59;85.20
76766;BME280;65707;52.362;6.588;2022-12-07T01:34:18;101656.50;;;4.55;85.00
76766;BME280;65707;52.362;6.588;2022-12-07T01:36:45;101651.09;;;4.56;85.10
76766;BME280;65707;52.362;6.588;2022-12-07T01:39:12;101660.13;;;4.54;84.32
76766;BME280;65707;52.362;6.588;2022-12-07T01:41:41;101654.41;;;4.47;84.61
76766;BME280;65707;52.362;6.588;2022-12-07T01:44:20;101661.97;;;4.41;84.99
76766;BME280;65707;52.362;6.588;2022-12-07T01:46:49;101666.53;;;4.39;85.23
76766;BME280;65707;52.362;6.588;2022-12-07T01:49:23;101668.53;;;4.35;84.72
76766;BME280;65707;52.362;6.588;2022-12-07T01:52:01;101667.06;;;4.31;84.68
76766;BME280;65707;52.362;6.588;2022-12-07T01:54:37;101650.63;;;4.14;85.05
76766;BME280;65707;52.362;6.588;2022-12-07T01:57:06;101665.47;;;4.16;85.25
76766;BME280;65707;52.362;6.588;2022-12-07T01:59:35;101663.91;;;4.14;84.81
76766;BME280;65707;52.362;6.588;2022-12-07T02:02:04;101664.75;;;4.14;85.11
76766;BME280;65707;52.362;6.588;2022-12-07T02:04:38;101653.28;;;4.14;84.96
76766;BME280;65707;52.362;6.588;2022-12-07T02:07:06;101667.00;;;4.08;84.92
76766;BME280;65707;52.362;6.588;2022-12-07T02:09:33;101655.84;;;4.03;85.15
76766;BME280;65707;52.362;6.588;2022-12-07T02:12:01;101667.31;;;4.03;84.87
76766;BME280;65707;52.362;6.588;2022-12-07T02:14:30;101655.09;;;4.01;85.33
76766;BME280;65707;52.362;6.588;2022-12-07T02:17:06;101656.56;;;4.17;85.13
76766;BME280;65707;52.362;6.588;2022-12-07T02:20:00;101656.66;;;4.28;84.89
76766;BME280;65707;52.362;6.588;2022-12-07T02:23:12;101658.03;;;4.34;85.23
76766;BME280;65707;52.362;6.588;2022-12-07T02:26:22;101652.78;;;4.57;85.03
76766;BME280;65707;52.362;6.588;2022-12-07T02:29:25;101655.09;;;4.62;84.10
76766;BME280;65707;52.362;6.588;2022-12-07T02:32:04;101644.69;;;4.59;83.95
76766;BME280;65707;52.362;6.588;2022-12-07T02:34:44;101647.44;;;4.57;83.63
76766;BME280;65707;52.362;6.588;2022-12-07T02:37:23;101646.63;;;4.57;83.90
76766;BME280;65707;52.362;6.588;2022-12-07T02:40:04;101646.31;;;4.49;84.32
76766;BME280;65707;52.362;6.588;2022-12-07T02:42:40;101646.66;;;4.44;84.29
76766;BME280;65707;52.362;6.588;2022-12-07T02:45:11;101646.84;;;4.41;84.18
76766;BME280;65707;52.362;6.588;2022-12-07T02:47:45;101649.84;;;4.37;83.95
76766;BME280;65707;52.362;6.588;2022-12-07T02:50:18;101647.06;;;4.38;84.01
76766;BME280;65707;52.362;6.588;2022-12-07T02:52:47;101656.66;;;4.41;84.50
76766;BME280;65707;52.362;6.588;2022-12-07T02:55:15;101652.81;;;4.45;84.36
76766;BME280;65707;52.362;6.588;2022-12-07T02:57:57;101654.59;;;4.57;84.21
76766;BME280;65707;52.362;6.588;2022-12-07T03:00:44;101647.34;;;4.59;83.99
76766;BME280;65707;52.362;6.588;2022-12-07T03:03:18;101654.03;;;4.64;84.02
76766;BME280;65707;52.362;6.588;2022-12-07T03:05:55;101645.53;;;4.59;83.39
76766;BME280;65707;52.362;6.588;2022-12-07T03:08:44;101657.75;;;4.62;83.29
76766;BME280;65707;52.362;6.588;2022-12-07T03:11:23;101657.03;;;4.60;82.80
76766;BME280;65707;52.362;6.588;2022-12-07T03:14:00;101653.44;;;4.48;83.16
76766;BME280;65707;52.362;6.588;2022-12-07T03:16:40;101653.09;;;4.53;83.74
76766;BME280;65707;52.362;6.588;2022-12-07T03:19:16;101650.22;;;4.56;83.10
76766;BME280;65707;52.362;6.588;2022-12-07T03:21:48;101641.94;;;4.48;83.61
76766;BME280;65707;52.362;6.588;2022-12-07T03:24:22;101652.78;;;4.57;83.26
76766;BME280;65707;52.362;6.588;2022-12-07T03:27:06;101644.47;;;4.62;83.46
76766;BME280;65707;52.362;6.588;2022-12-07T03:29:41;101635.31;;;4.66;83.58
76766;BME280;65707;52.362;6.588;2022-12-07T03:32:16;101631.47;;;4.70;84.00
76766;BME280;65707;52.362;6.588;2022-12-07T03:34:53;101630.59;;;4.82;83.44
76766;BME280;65707;52.362;6.588;2022-12-07T03:37:30;101623.63;;;4.92;83.55
76766;BME280;65707;52.362;6.588;2022-12-07T03:40:05;101621.81;;;4.93;83.37
76766;BME280;65707;52.362;6.588;2022-12-07T03:42:39;101620.63;;;4.97;82.63
76766;BME280;65707;52.362;6.588;2022-12-07T03:45:15;101619.28;;;4.91;81.96
76766;BME280;65707;52.362;6.588;2022-12-07T03:47:46;101620.50;;;4.98;81.81
76766;BME280;65707;52.362;6.588;2022-12-07T03:50:25;101620.72;;;4.95;82.00
76766;BME280;65707;52.362;6.588;2022-12-07T03:53:02;101616.91;;;4.99;81.99
76766;BME280;65707;52.362;6.588;2022-12-07T03:55:37;101622.09;;;5.01;82.36
76766;BME280;65707;52.362;6.588;2022-12-07T03:58:12;101623.91;;;5.00;82.08
76766;BME280;65707;52.362;6.588;2022-12-07T04:00:44;101625.97;;;5.08;81.47
76766;BME280;65707;52.362;6.588;2022-12-07T04:03:12;101624.94;;;5.10;81.34
76766;BME280;65707;52.362;6.588;2022-12-07T04:05:39;101623.22;;;5.09;81.51
76766;BME280;65707;52.362;6.588;2022-12-07T04:08:07;101619.31;;;5.02;81.95
76766;BME280;65707;52.362;6.588;2022-12-07T04:10:34;101620.72;;;4.95;81.87
76766;BME280;65707;52.362;6.588;2022-12-07T04:13:01;101626.28;;;4.92;81.88
76766;BME280;65707;52.362;6.588;2022-12-07T04:15:28;101622.84;;;4.79;82.35
76766;BME280;65707;52.362;6.588;2022-12-07T04:17:55;101615.59;;;4.81;82.22
76766;BME280;65707;52.362;6.588;2022-12-07T04:20:23;101618.59;;;4.76;81.90
76766;BME280;65707;52.362;6.588;2022-12-07T04:22:50;101613.84;;;4.69;82.29
76766;BME280;65707;52.362;6.588;2022-12-07T04:25:17;101613.09;;;4.67;82.09
76766;BME280;65707;52.362;6.588;2022-12-07T04:27:44;101614.69;;;4.69;82.83
76766;BME280;65707;52.362;6.588;2022-12-07T04:30:11;101610.25;;;4.57;82.97
76766;BME280;65707;52.362;6.588;2022-12-07T04:32:38;101614.63;;;4.58;82.42
76766;BME280;65707;52.362;6.588;2022-12-07T04:35:05;101617.50;;;4.55;82.65
76766;BME280;65707;52.362;6.588;2022-12-07T04:37:34;101619.53;;;4.52;82.54
76766;BME280;65707;52.362;6.588;2022-12-07T04:40:01;101619.53;;;4.52;82.84
76766;BME280;65707;52.362;6.588;2022-12-07T04:42:28;101616.66;;;4.55;83.41
76766;BME280;65707;52.362;6.588;2022-12-07T04:44:55;101615.25;;;4.49;83.38
76766;BME280;65707;52.362;6.588;2022-12-07T04:47:21;101619.00;;;4.47;83.24
76766;BME280;65707;52.362;6.588;2022-12-07T04:49:48;101620.69;;;4.48;83.87
76766;BME280;65707;52.362;6.588;2022-12-07T04:52:15;101618.78;;;4.50;82.98
76766;BME280;65707;52.362;6.588;2022-12-07T04:54:43;101624.53;;;4.44;83.58
76766;BME280;65707;52.362;6.588;2022-12-07T04:57:10;101626.22;;;4.45;82.85
76766;BME280;65707;52.362;6.588;2022-12-07T04:59:37;101626.91;;;4.36;83.15
76766;BME280;65707;52.362;6.588;2022-12-07T05:02:03;101612.88;;;4.34;83.48
76766;BME280;65707;52.362;6.588;2022-12-07T05:04:30;101622.97;;;4.29;83.37
76766;BME280;65707;52.362;6.588;2022-12-07T05:06:57;101613.31;;;4.28;83.43
76766;BME280;65707;52.362;6.588;2022-12-07T05:09:24;101615.44;;;4.23;83.53
76766;BME280;65707;52.362;6.588;2022-12-07T05:11:52;101611.84;;;4.24;83.65
76766;BME280;65707;52.362;6.588;2022-12-07T05:14:20;101619.59;;;4.27;83.46
76766;BME280;65707;52.362;6.588;2022-12-07T05:16:49;101610.88;;;4.25;83.22
76766;BME280;65707;52.362;6.588;2022-12-07T05:19:19;101613.97;;;4.19;83.55
76766;BME280;65707;52.362;6.588;2022-12-07T05:21:46;101612.69;;;4.12;83.64
76766;BME280;65707;52.362;6.588;2022-12-07T05:24:15;101611.34;;;4.06;83.59
76766;BME280;65707;52.362;6.588;2022-12-07T05:26:43;101606.13;;;4.05;83.55
76766;BME280;65707;52.362;6.588;2022-12-07T05:29:14;101618.44;;;4.06;83.76
76766;BME280;65707;52.362;6.588;2022-12-07T05:31:42;101613.13;;;4.06;83.94
76766;BME280;65707;52.362;6.588;2022-12-07T05:34:10;101620.47;;;4.02;83.76
76766;BME280;65707;52.362;6.588;2022-12-07T05:36:37;101624.50;;;4.08;84.03
76766;BME280;65707;52.362;6.588;2022-12-07T05:39:05;101627.06;;;4.09;84.42
76766;BME280;65707;52.362;6.588;2022-12-07T05:41:32;101623.63;;;4.20;84.02
76766;BME280;65707;52.362;6.588;2022-12-07T05:44:18;101621.50;;;4.25;83.63
76766;BME280;65707;52.362;6.588;2022-12-07T05:46:45;101615.56;;;4.21;83.41
76766;BME280;65707;52.362;6.588;2022-12-07T05:49:12;101617.38;;;4.21;83.45
76766;BME280;65707;52.362;6.588;2022-12-07T05:51:39;101616.00;;;4.15;83.83
76766;BME280;65707;52.362;6.588;2022-12-07T05:54:06;101609.59;;;4.18;83.72
76766;BME280;65707;52.362;6.588;2022-12-07T05:56:33;101597.41;;;4.15;83.94
76766;BME280;65707;52.362;6.588;2022-12-07T05:59:00;101613.75;;;4.22;84.06
76766;BME280;65707;52.362;6.588;2022-12-07T06:01:46;101600.16;;;4.14;84.73
76766;BME280;65707;52.362;6.588;2022-12-07T06:04:13;101599.19;;;4.15;84.34
76766;BME280;65707;52.362;6.588;2022-12-07T06:06:40;101603.16;;;4.09;84.42
76766;BME280;65707;52.362;6.588;2022-12-07T06:09:07;101598.47;;;4.13;84.04
76766;BME280;65707;52.362;6.588;2022-12-07T06:11:34;101605.47;;;4.14;83.85
76766;BME280;65707;52.362;6.588;2022-12-07T06:14:18;101595.41;;;4.06;84.30
76766;BME280;65707;52.362;6.588;2022-12-07T06:16:47;101600.59;;;4.08;84.01
76766;BME280;65707;52.362;6.588;2022-12-07T06:19:14;101603.16;;;4.09;84.24
76766;BME280;65707;52.362;6.588;2022-12-07T06:21:41;101592.53;;;4.09;83.58
76766;BME280;65707;52.362;6.588;2022-12-07T06:24:09;101607.16;;;4.15;83.43
76766;BME280;65707;52.362;6.588;2022-12-07T06:26:38;101604.41;;;4.16;83.67
76766;BME280;65707;52.362;6.588;2022-12-07T06:29:05;101604.00;;;4.10;83.63
76766;BME280;65707;52.362;6.588;2022-12-07T06:31:32;101603.59;;;4.03;83.42
76766;BME280;65707;52.362;6.588;2022-12-07T06:34:02;101602.09;;;3.99;83.50
76766;BME280;65707;52.362;6.588;2022-12-07T06:36:30;101606.56;;;3.99;83.18
76766;BME280;65707;52.362;6.588;2022-12-07T06:38:57;101608.69;;;3.94;83.44
76766;BME280;65707;52.362;6.588;2022-12-07T06:41:24;101596.56;;;3.90;83.45
76766;BME280;65707;52.362;6.588;2022-12-07T06:43:51;101608.91;;;3.91;83.48
76766;BME280;65707;52.362;6.588;2022-12-07T06:46:18;101606.16;;;3.92;83.55
76766;BME280;65707;52.362;6.588;2022-12-07T06:48:45;101609.34;;;3.85;83.42
76766;BME280;65707;52.362;6.588;2022-12-07T06:51:13;101613.78;;;3.84;83.53
76766;BME280;65707;52.362;6.588;2022-12-07T06:53:40;101612.63;;;3.76;83.90
76766;BME280;65707;52.362;6.588;2022-12-07T06:56:07;101614.22;;;3.78;84.15
76766;BME280;65707;52.362;6.588;2022-12-07T06:58:34;101624.94;;;3.77;84.09
76766;BME280;65707;52.362;6.588;2022-12-07T07:01:01;101624.75;;;3.80;84.16
76766;BME280;65707;52.362;6.588;2022-12-07T07:03:28;101619.31;;;3.81;84.42
76766;BME280;65707;52.362;6.588;2022-12-07T07:05:55;101619.66;;;3.77;84.20
76766;BME280;65707;52.362;6.588;2022-12-07T07:08:23;101629.94;;;3.94;84.49
76766;BME280;65707;52.362;6.588;2022-12-07T07:10:50;101626.94;;;3.98;84.24
76766;BME280;65707;52.362;6.588;2022-12-07T07:13:17;101634.69;;;4.14;84.01
76766;BME280;65707;52.362;6.588;2022-12-07T07:15:44;101624.91;;;4.27;83.59
76766;BME280;65707;52.362;6.588;2022-12-07T07:18:11;101623.72;;;4.31;83.47
76766;BME280;65707;52.362;6.588;2022-12-07T07:20:38;101627.41;;;4.41;83.60
76766;BME280;65707;52.362;6.588;2022-12-07T07:23:05;101620.28;;;4.54;82.81
76766;BME280;65707;52.362;6.588;2022-12-07T07:25:34;101624.75;;;4.77;82.66
76766;BME280;65707;52.362;6.588;2022-12-07T07:28:01;101626.31;;;4.79;81.88
76766;BME280;65707;52.362;6.588;2022-12-07T07:30:29;101628.03;;;4.81;81.70
76766;BME280;65707;52.362;6.588;2022-12-07T07:32:56;101615.75;;;4.91;82.11
76766;BME280;65707;52.362;6.588;2022-12-07T07:35:23;101607.72;;;4.79;81.97
76766;BME280;65707;52.362;6.588;2022-12-07T07:37:50;101618.88;;;4.85;81.70
76766;BME280;65707;52.362;6.588;2022-12-07T07:40:18;101620.13;;;4.92;81.13
76766;BME280;65707;52.362;6.588;2022-12-07T07:42:48;101627.94;;;4.82;81.62
76766;BME280;65707;52.362;6.588;2022-12-07T07:45:16;101633.47;;;4.79;81.77
76766;BME280;65707;52.362;6.588;2022-12-07T07:47:46;101628.22;;;4.66;81.58
76766;BME280;65707;52.362;6.588;2022-12-07T07:50:13;101613.03;;;4.56;81.75
76766;BME280;65707;52.362;6.588;2022-12-07T07:52:41;101630.47;;;4.60;82.00
76766;BME280;65707;52.362;6.588;2022-12-07T07:55:08;101630.16;;;4.52;81.81
76766;BME280;65707;52.362;6.588;2022-12-07T07:57:36;101638.13;;;4.52;82.02
76766;BME280;65707;52.362;6.588;2022-12-07T08:00:07;101638.34;;;4.49;82.16
76766;BME280;65707;52.362;6.588;2022-12-07T08:02:37;101633.91;;;4.37;82.43
76766;BME280;65707;52.362;6.588;2022-12-07T08:05:05;101641.75;;;4.38;82.24
76766;BME280;65707;52.362;6.588;2022-12-07T08:07:32;101640.06;;;4.37;82.48
76766;BME280;65707;52.362;6.588;2022-12-07T08:09:59;101633.91;;;4.37;82.58
76766;BME280;65707;52.362;6.588;2022-12-07T08:12:26;101643.91;;;4.33;82.66
76766;BME280;65707;52.362;6.588;2022-12-07T08:14:53;101629.84;;;4.44;82.75
76766;BME280;65707;52.362;6.588;2022-12-07T08:17:23;101635.44;;;4.64;82.91
76766;BME280;65707;52.362;6.588;2022-12-07T08:19:50;101638.28;;;4.74;82.34
76766;BME280;65707;52.362;6.588;2022-12-07T08:22:17;101645.34;;;4.86;82.14
76766;BME280;65707;52.362;6.588;2022-12-07T08:24:44;101643.09;;;4.93;81.03
76766;BME280;65707;52.362;6.588;2022-12-07T08:27:11;101642.75;;;4.97;81.33
76766;BME280;65707;52.362;6.588;2022-12-07T08:29:37;101641.78;;;4.98;80.71
76766;BME280;65707;52.362;6.588;2022-12-07T08:32:04;101648.56;;;5.02;81.59
76766;BME280;65707;52.362;6.588;2022-12-07T08:34:32;101645.34;;;5.10;81.16
76766;BME280;65707;52.362;6.588;2022-12-07T08:36:59;101645.75;;;5.16;81.89
76766;BME280;65707;52.362;6.588;2022-12-07T08:39:26;101653.03;;;5.25;80.73
76766;BME280;65707;52.362;6.588;2022-12-07T08:41:53;101649.66;;;5.34;81.40
76766;BME280;65707;52.362;6.588;2022-12-07T08:44:20;101656.25;;;5.41;80.54
76766;BME280;65707;52.362;6.588;2022-12-07T08:46:50;101645.41;;;5.55;80.89
76766;BME280;65707;52.362;6.588;2022-12-07T08:49:23;101652.94;;;5.72;80.16
76766;BME280;65707;52.362;6.588;2022-12-07T08:51:55;101655.97;;;5.79;80.82
76766;BME280;65707;52.362;6.588;2022-12-07T08:54:22;101651.56;;;5.90;80.84
76766;BME280;65707;52.362;6.588;2022-12-07T08:56:49;101650.47;;;6.04;79.65
76766;BME280;65707;52.362;6.588;2022-12-07T08:59:18;101636.81;;;6.08;79.71
76766;BME280;65707;52.362;6.588;2022-12-07T09:01:46;101637.53;;;6.10;79.83
76766;BME280;65707;52.362;6.588;2022-12-07T09:04:13;101639.94;;;6.02;78.93
76766;BME280;65707;52.362;6.588;2022-12-07T09:06:42;101629.75;;;5.85;79.36
76766;BME280;65707;52.362;6.588;2022-12-07T09:09:11;101638.50;;;5.87;80.16
76766;BME280;65707;52.362;6.588;2022-12-07T09:11:40;101637.66;;;5.98;80.43
76766;BME280;65707;52.362;6.588;2022-12-07T09:14:07;101627.59;;;6.01;80.54
76766;BME280;65707;52.362;6.588;2022-12-07T09:16:37;101620.81;;;6.08;78.83
76766;BME280;65707;52.362;6.588;2022-12-07T09:19:04;101631.97;;;6.13;79.19
76766;BME280;65707;52.362;6.588;2022-12-07T09:21:31;101634.25;;;6.07;79.14
76766;BME280;65707;52.362;6.588;2022-12-07T09:23:58;101628.06;;;6.06;79.01
76766;BME280;65707;52.362;6.588;2022-12-07T09:26:27;101635.34;;;6.04;79.93
76766;BME280;65707;52.362;6.588;2022-12-07T09:28:54;101633.41;;;6.17;79.62
76766;BME280;65707;52.362;6.588;2022-12-07T09:31:20;101638.38;;;6.33;79.19
76766;BME280;65707;52.362;6.588;2022-12-07T09:33:53;101633.22;;;6.74;77.17
76766;BME280;65707;52.362;6.588;2022-12-07T09:36:20;101624.47;;;7.15;76.33
76766;BME280;65707;52.362;6.588;2022-12-07T09:38:47;101637.28;;;7.73;75.46
76766;BME280;65707;52.362;6.588;2022-12-07T09:41:14;101628.91;;;8.28;73.05
76766;BME280;65707;52.362;6.588;2022-12-07T09:43:43;101609.63;;;8.74;70.62
76766;BME280;65707;52.362;6.588;2022-12-07T09:46:13;101628.41;;;9.02;69.51
76766;BME280;65707;52.362;6.588;2022-12-07T09:48:43;101633.31;;;8.88;69.64
76766;BME280;65707;52.362;6.588;2022-12-07T09:51:16;101627.44;;;8.45;69.31
76766;BME280;65707;52.362;6.588;2022-12-07T09:53:45;101633.47;;;8.37;70.09
76766;BME280;65707;52.362;6.588;2022-12-07T09:56:14;101627.63;;;8.72;69.50
76766;BME280;65707;52.362;6.588;2022-12-07T09:58:45;101631.34;;;8.99;67.90
76766;BME280;65707;52.362;6.588;2022-12-07T10:01:15;101625.19;;;9.27;67.52
76766;BME280;65707;52.362;6.588;2022-12-07T10:03:49;101613.31;;;9.59;65.95
76766;BME280;65707;52.362;6.588;2022-12-07T10:06:18;101609.06;;;9.75;65.57
76766;BME280;65707;52.362;6.588;2022-12-07T10:08:45;101607.31;;;9.93;65.73
76766;BME280;65707;52.362;6.588;2022-12-07T10:11:13;101597.31;;;10.32;63.42
76766;BME280;65707;52.362;6.588;2022-12-07T10:13:43;101595.13;;;10.45;62.63
76766;BME280;65707;52.362;6.588;2022-12-07T10:16:32;101599.09;;;10.68;62.12
76766;BME280;65707;52.362;6.588;2022-12-07T10:19:18;101588.44;;;10.93;61.22
76766;BME280;65707;52.362;6.588;2022-12-07T10:22:04;101595.31;;;11.23;60.91
76766;BME280;65707;52.362;6.588;2022-12-07T10:24:36;101583.19;;;11.62;59.98
76766;BME280;65707;52.362;6.588;2022-12-07T10:27:05;101563.25;;;11.47;59.88
76766;BME280;65707;52.362;6.588;2022-12-07T10:29:48;101564.16;;;11.56;59.27
76766;BME280;65707;52.362;6.588;2022-12-07T10:32:31;101563.94;;;11.49;58.74
76766;BME280;65707;52.362;6.588;2022-12-07T10:35:21;101578.25;;;11.32;59.22
76766;BME280;65707;52.362;6.588;2022-12-07T10:37:51;101571.31;;;11.47;59.21
76766;BME280;65707;52.362;6.588;2022-12-07T10:40:31;101574.22;;;11.71;59.07
76766;BME280;65707;52.362;6.588;2022-12-07T10:43:04;101564.00;;;11.75;57.97
76766;BME280;65707;52.362;6.588;2022-12-07T10:45:35;101564.81;;;11.75;57.89
76766;BME280;65707;52.362;6.588;2022-12-07T10:48:32;101555.44;;;12.13;58.16
76766;BME280;65707;52.362;6.588;2022-12-07T10:51:14;101539.84;;;12.16;56.86
76766;BME280;65707;52.362;6.588;2022-12-07T10:53:57;101543.69;;;12.14;57.29
76766;BME280;65707;52.362;6.588;2022-12-07T10:56:47;101542.59;;;12.32;56.02
76766;BME280;65707;52.362;6.588;2022-12-07T10:59:45;101545.88;;;12.10;57.08
76766;BME280;65707;52.362;6.588;2022-12-07T11:02:49;101534.13;;;12.69;55.15
76766;BME280;65707;52.362;6.588;2022-12-07T11:05:30;101526.59;;;12.97;54.68
76766;BME280;65707;52.362;6.588;2022-12-07T11:08:17;101522.75;;;13.07;53.97
76766;BME280;65707;52.362;6.588;2022-12-07T11:11:05;101526.91;;;12.94;53.84
76766;BME280;65707;52.362;6.588;2022-12-07T11:13:45;101524.56;;;12.25;56.12
76766;BME280;65707;52.362;6.588;2022-12-07T11:16:24;101537.38;;;11.64;57.61
76766;BME280;65707;52.362;6.588;2022-12-07T11:19:16;101535.59;;;10.94;59.43
76766;BME280;65707;52.362;6.588;2022-12-07T11:21:56;101545.00;;;10.45;60.26
76766;BME280;65707;52.362;6.588;2022-12-07T11:24:29;101535.38;;;9.89;62.36
76766;BME280;65707;52.362;6.588;2022-12-07T11:27:13;101542.81;;;9.58;63.79
76766;BME280;65707;52.362;6.588;2022-12-07T11:30:00;101547.63;;;9.45;64.55
76766;BME280;65707;52.362;6.588;2022-12-07T11:32:49;101522.09;;;9.51;63.72
76766;BME280;65707;52.362;6.588;2022-12-07T11:35:33;101528.03;;;10.45;61.97
76766;BME280;65707;52.362;6.588;2022-12-07T11:38:11;101507.59;;;10.96;60.03
76766;BME280;65707;52.362;6.588;2022-12-07T11:40:45;101499.66;;;11.56;58.81
76766;BME280;65707;52.362;6.588;2022-12-07T11:43:20;101503.63;;;12.03;57.92
76766;BME280;65707;52.362;6.588;2022-12-07T11:45:56;101497.22;;;12.53;55.64
76766;BME280;65707;52.362;6.588;2022-12-07T11:48:32;101486.84;;;12.91;54.87
76766;BME280;65707;52.362;6.588;2022-12-07T11:51:07;101480.59;;;13.46;53.60
76766;BME280;65707;52.362;6.588;2022-12-07T11:53:40;101471.66;;;13.62;52.84
76766;BME280;65707;52.362;6.588;2022-12-07T11:56:13;101471.00;;;13.98;52.60
76766;BME280;65707;52.362;6.588;2022-12-07T11:58:49;101469.47;;;14.04;52.27
76766;BME280;65707;52.362;6.588;2022-12-07T12:01:31;101472.41;;;14.17;51.01
76766;BME280;65707;52.362;6.588;2022-12-07T12:04:29;101469.41;;;13.65;51.94
76766;BME280;65707;52.362;6.588;2022-12-07T12:07:06;101482.97;;;12.85;54.16
76766;BME280;65707;52.362;6.588;2022-12-07T12:09:40;101494.16;;;11.91;58.06
76766;BME280;65707;52.362;6.588;2022-12-07T12:15:39;101503.31;;;10.86;58.68
76766;BME280;65707;52.362;6.588;2022-12-07T12:18:38;101501.38;;;10.61;60.39
76766;BME280;65707;52.362;6.588;2022-12-07T12:21:26;101500.66;;;10.24;62.06
76766;BME280;65707;52.362;6.588;2022-12-07T12:23:59;101498.34;;;10.02;62.76
76766;BME280;65707;52.362;6.588;2022-12-07T12:26:32;101501.41;;;9.80;63.93
76766;BME280;65707;52.362;6.588;2022-12-07T12:29:03;101493.34;;;9.89;64.19
76766;BME280;65707;52.362;6.588;2022-12-07T12:31:36;101483.72;;;9.87;64.40
76766;BME280;65707;52.362;6.588;2022-12-07T12:34:33;101481.75;;;9.89;64.41
76766;BME280;65707;52.362;6.588;2022-12-07T12:37:40;101479.63;;;9.56;64.57
76766;BME280;65707;52.362;6.588;2022-12-07T12:40:43;101475.63;;;9.32;64.65
76766;BME280;65707;52.362;6.588;2022-12-07T12:43:42;101478.19;;;9.15;65.94
76766;BME280;65707;52.362;6.588;2022-12-07T12:46:47;101469.53;;;9.40;64.18
76766;BME280;65707;52.362;6.588;2022-12-07T12:49:43;101457.97;;;10.13;62.72
76766;BME280;65707;52.362;6.588;2022-12-07T12:52:55;101463.03;;;10.16;62.19
76766;BME280;65707;52.362;6.588;2022-12-07T12:55:48;101466.28;;;9.83;63.66
76766;BME280;65707;52.362;6.588;2022-12-07T12:58:42;101460.91;;;9.83;63.95
76766;BME280;65707;52.362;6.588;2022-12-07T13:01:44;101464.09;;;9.69;64.05
76766;BME280;65707;52.362;6.588;2022-12-07T13:07:54;101460.34;;;9.79;62.44
76766;BME280;65707;52.362;6.588;2022-12-07T13:10:40;101446.31;;;9.68;62.76
76766;BME280;65707;52.362;6.588;2022-12-07T13:13:30;101447.16;;;9.68;62.66
76766;BME280;65707;52.362;6.588;2022-12-07T13:16:39;101448.41;;;9.37;62.20
76766;BME280;65707;52.362;6.588;2022-12-07T13:22:52;101438.06;;;9.52;61.74
76766;BME280;65707;52.362;6.588;2022-12-07T13:25:31;101424.81;;;9.50;61.30
76766;BME280;65707;52.362;6.588;2022-12-07T13:28:10;101430.81;;;9.62;60.94
76766;BME280;65707;52.362;6.588;2022-12-07T13:30:53;101432.72;;;9.52;62.59
76766;BME280;65707;52.362;6.588;2022-12-07T13:33:30;101422.28;;;9.49;61.68
76766;BME280;65707;52.362;6.588;2022-12-07T13:36:01;101423.03;;;9.31;62.12
76766;BME280;65707;52.362;6.588;2022-12-07T13:38:29;101424.22;;;9.19;63.03